sensor_id;sensor_type;location;lat;lon;timestamp;temperature;humidity
35246;DHT22;21379;50.962;6.960;2022-12-05T00:01:54;3.50;99.90
35246;DHT22;21379;50.962;6.960;2022-12-05T00:04:21;3.40;99.90
35246;DHT22;21379;50.962;6.960;2022-12-05T00:06:48;3.40;99.90
35246;DHT22;21379;50.962;6.960;2022-12-05T00:09:15;3.40;99.90
35246;DHT22;21379;50.962;6.960;2022-12-05T00:11:43;3.40;99.90
35246;DHT22;21379;50.962;6.960;2022-12-05T00:14:11;3.30;99.90
35246;DHT22;21379;50.962;6.960;2022-12-05T00:16:40;3.30;99.90
35246;DHT22;21379;50.962;6.960;2022-12-05T00:19:11;3.40;99.90
35246;DHT22;21379;50.962;6.960;2022-12-05T00:21:39;3.40;99.90
35246;DHT22;21379;50.962;6.960;2022-12-05T00:24:07;3.30;99.90
35246;DHT22;21379;50.962;6.960;2022-12-05T00:26:34;3.30;99.90
35246;DHT22;21379;50.962;6.960;2022-12-05T00:29:01;3.30;99.90
35246;DHT22;21379;50.962;6.960;2022-12-05T00:31:28;3.30;99.90
35246;DHT22;21379;50.962;6.960;2022-12-05T00:33:58;3.30;99.90
35246;DHT22;21379;50.962;6.960;2022-12-05T00:36:30;3.30;99.90
35246;DHT22;21379;50.962;6.960;2022-12-05T00:38:58;3.40;99.90
35246;DHT22;21379;50.962;6.960;2022-12-05T00:41:26;3.40;99.90
35246;DHT22;21379;50.962;6.960;2022-12-05T00:43:54;3.40;99.90
35246;DHT22;21379;50.962;6.960;2022-12-05T00:46:22;3.40;99.90
35246;DHT22;21379;50.962;6.960;2022-12-05T00:48:51;3.50;99.90
35246;DHT22;21379;50.962;6.960;2022-12-05T00:51:19;3.50;99.90
35246;DHT22;21379;50.962;6.960;2022-12-05T00:53:48;3.50;99.90
35246;DHT22;21379;50.962;6.960;2022-12-05T00:56:17;3.50;99.90
35246;DHT22;21379;50.962;6.960;2022-12-05T00:58:44;3.40;99.90
35246;DHT22;21379;50.962;6.960;2022-12-05T01:01:13;3.40;99.90
35246;DHT22;21379;50.962;6.960;2022-12-05T01:03:40;3.30;99.90
35246;DHT22;21379;50.962;6.960;2022-12-05T01:06:08;3.40;99.90
35246;DHT22;21379;50.962;6.960;2022-12-05T01:08:37;3.40;99.90
35246;DHT22;21379;50.962;6.960;2022-12-05T01:11:07;3.40;99.90
35246;DHT22;21379;50.962;6.960;2022-12-05T01:13:34;3.40;99.90
35246;DHT22;21379;50.962;6.960;2022-12-05T01:16:01;3.40;99.90
35246;DHT22;21379;50.962;6.960;2022-12-05T01:18:28;3.40;99.90
35246;DHT22;21379;50.962;6.960;2022-12-05T01:20:56;3.40;99.90
35246;DHT22;21379;50.962;6.960;2022-12-05T01:23:23;3.50;99.90
35246;DHT22;21379;50.962;6.960;2022-12-05T01:25:51;3.40;99.90
35246;DHT22;21379;50.962;6.960;2022-12-05T01:28:19;3.40;99.90
35246;DHT22;21379;50.962;6.960;2022-12-05T01:30:47;3.40;99.90
35246;DHT22;21379;50.962;6.960;2022-12-05T01:33:15;3.40;99.90
35246;DHT22;21379;50.962;6.960;2022-12-05T01:35:43;3.40;99.90
35246;DHT22;21379;50.962;6.960;2022-12-05T01:38:11;3.40;99.90
35246;DHT22;21379;50.962;6.960;2022-12-05T01:40:38;3.40;99.90
35246;DHT22;21379;50.962;6.960;2022-12-05T01:43:08;3.50;99.90
35246;DHT22;21379;50.962;6.960;2022-12-05T01:45:42;3.50;99.90
35246;DHT22;21379;50.962;6.960;2022-12-05T01:48:12;3.50;99.90
35246;DHT22;21379;50.962;6.960;2022-12-05T01:50:41;3.50;99.90
35246;DHT22;21379;50.962;6.960;2022-12-05T01:53:08;3.40;99.90
35246;DHT22;21379;50.962;6.960;2022-12-05T01:55:35;3.40;99.90
35246;DHT22;21379;50.962;6.960;2022-12-05T01:58:04;3.40;99.90
35246;DHT22;21379;50.962;6.960;2022-12-05T02:00:32;3.40;99.90
35246;DHT22;21379;50.962;6.960;2022-12-05T02:03:04;3.40;99.90
35246;DHT22;21379;50.962;6.960;2022-12-05T02:05:33;3.40;99.90
35246;DHT22;21379;50.962;6.960;2022-12-05T02:08:02;3.40;99.90
35246;DHT22;21379;50.962;6.960;2022-12-05T02:10:33;3.40;99.90
35246;DHT22;21379;50.962;6.960;2022-12-05T02:13:15;3.30;99.90
35246;DHT22;21379;50.962;6.960;2022-12-05T02:15:49;3.40;99.90
35246;DHT22;21379;50.962;6.960;2022-12-05T02:18:36;3.30;99.90
35246;DHT22;21379;50.962;6.960;2022-12-05T02:21:21;3.30;99.90
35246;DHT22;21379;50.962;6.960;2022-12-05T02:24:06;3.30;99.90
35246;DHT22;21379;50.962;6.960;2022-12-05T02:27:03;3.30;99.90
35246;DHT22;21379;50.962;6.960;2022-12-05T02:29:55;3.30;99.90
35246;DHT22;21379;50.962;6.960;2022-12-05T02:32:35;3.30;99.90
35246;DHT22;21379;50.962;6.960;2022-12-05T02:35:13;3.30;99.90
35246;DHT22;21379;50.962;6.960;2022-12-05T02:37:47;3.30;99.90
35246;DHT22;21379;50.962;6.960;2022-12-05T02:40:22;3.30;99.90
35246;DHT22;21379;50.962;6.960;2022-12-05T02:42:55;3.30;99.90
35246;DHT22;21379;50.962;6.960;2022-12-05T02:45:27;3.30;99.90
35246;DHT22;21379;50.962;6.960;2022-12-05T02:47:58;3.30;99.90
35246;DHT22;21379;50.962;6.960;2022-12-05T02:50:29;3.20;99.90
35246;DHT22;21379;50.962;6.960;2022-12-05T02:53:01;3.20;99.90
35246;DHT22;21379;50.962;6.960;2022-12-05T02:55:30;3.20;99.90
35246;DHT22;21379;50.962;6.960;2022-12-05T02:58:00;3.20;99.90
35246;DHT22;21379;50.962;6.960;2022-12-05T03:00:30;3.20;99.90
35246;DHT22;21379;50.962;6.960;2022-12-05T03:02:58;3.10;99.90
35246;DHT22;21379;50.962;6.960;2022-12-05T03:05:32;3.10;99.90
35246;DHT22;21379;50.962;6.960;2022-12-05T03:08:04;3.10;99.90
35246;DHT22;21379;50.962;6.960;2022-12-05T03:10:33;3.10;99.90
35246;DHT22;21379;50.962;6.960;2022-12-05T03:13:06;3.00;99.90
35246;DHT22;21379;50.962;6.960;2022-12-05T03:15:38;3.00;99.90
35246;DHT22;21379;50.962;6.960;2022-12-05T03:18:09;3.00;99.90
35246;DHT22;21379;50.962;6.960;2022-12-05T03:20:41;2.90;99.90
35246;DHT22;21379;50.962;6.960;2022-12-05T03:23:14;2.90;99.90
35246;DHT22;21379;50.962;6.960;2022-12-05T03:25:49;2.90;99.90
35246;DHT22;21379;50.962;6.960;2022-12-05T03:28:22;2.80;99.90
35246;DHT22;21379;50.962;6.960;2022-12-05T03:30:53;2.80;99.90
35246;DHT22;21379;50.962;6.960;2022-12-05T03:33:24;2.70;99.90
35246;DHT22;21379;50.962;6.960;2022-12-05T03:36:00;2.70;99.90
35246;DHT22;21379;50.962;6.960;2022-12-05T03:38:32;2.70;99.90
35246;DHT22;21379;50.962;6.960;2022-12-05T03:41:04;2.70;99.90
35246;DHT22;21379;50.962;6.960;2022-12-05T03:43:36;2.70;99.90
35246;DHT22;21379;50.962;6.960;2022-12-05T03:46:08;2.70;99.90
35246;DHT22;21379;50.962;6.960;2022-12-05T03:48:40;2.70;99.90
35246;DHT22;21379;50.962;6.960;2022-12-05T03:51:11;2.60;99.90
35246;DHT22;21379;50.962;6.960;2022-12-05T03:53:44;2.60;99.90
35246;DHT22;21379;50.962;6.960;2022-12-05T03:56:16;2.50;99.90
35246;DHT22;21379;50.962;6.960;2022-12-05T03:58:47;2.50;99.90
35246;DHT22;21379;50.962;6.960;2022-12-05T04:01:17;2.50;99.90
35246;DHT22;21379;50.962;6.960;2022-12-05T04:03:48;2.40;99.90
35246;DHT22;21379;50.962;6.960;2022-12-05T04:06:20;2.50;99.90
35246;DHT22;21379;50.962;6.960;2022-12-05T04:08:52;2.40;99.90
35246;DHT22;21379;50.962;6.960;2022-12-05T04:11:22;2.40;99.90
35246;DHT22;21379;50.962;6.960;2022-12-05T04:13:52;2.40;99.90
35246;DHT22;21379;50.962;6.960;2022-12-05T04:16:24;2.30;99.90
35246;DHT22;21379;50.962;6.960;2022-12-05T04:19:13;2.40;99.90
35246;DHT22;21379;50.962;6.960;2022-12-05T04:21:44;2.30;99.90
35246;DHT22;21379;50.962;6.960;2022-12-05T04:24:13;2.30;99.90
35246;DHT22;21379;50.962;6.960;2022-12-05T04:27:08;2.20;99.90
35246;DHT22;21379;50.962;6.960;2022-12-05T04:29:41;2.20;99.90
35246;DHT22;21379;50.962;6.960;2022-12-05T04:32:13;2.20;99.90
35246;DHT22;21379;50.962;6.960;2022-12-05T04:34:41;2.10;99.90
35246;DHT22;21379;50.962;6.960;2022-12-05T04:37:15;2.20;99.90
35246;DHT22;21379;50.962;6.960;2022-12-05T04:39:47;2.20;99.90
35246;DHT22;21379;50.962;6.960;2022-12-05T04:42:18;2.20;99.90
35246;DHT22;21379;50.962;6.960;2022-12-05T04:44:50;2.20;99.90
35246;DHT22;21379;50.962;6.960;2022-12-05T04:47:22;2.20;99.90
35246;DHT22;21379;50.962;6.960;2022-12-05T04:49:51;2.20;99.90
35246;DHT22;21379;50.962;6.960;2022-12-05T04:52:18;2.20;99.90
35246;DHT22;21379;50.962;6.960;2022-12-05T04:54:49;2.20;99.90
35246;DHT22;21379;50.962;6.960;2022-12-05T04:57:23;2.20;99.90
35246;DHT22;21379;50.962;6.960;2022-12-05T04:59:50;2.20;99.90
35246;DHT22;21379;50.962;6.960;2022-12-05T05:02:25;2.20;99.90
35246;DHT22;21379;50.962;6.960;2022-12-05T05:04:56;2.20;99.90
35246;DHT22;21379;50.962;6.960;2022-12-05T05:07:23;2.20;99.90
35246;DHT22;21379;50.962;6.960;2022-12-05T05:09:50;2.20;99.90
35246;DHT22;21379;50.962;6.960;2022-12-05T05:12:17;2.10;99.90
35246;DHT22;21379;50.962;6.960;2022-12-05T05:14:44;2.10;99.90
35246;DHT22;21379;50.962;6.960;2022-12-05T05:17:11;2.10;99.90
35246;DHT22;21379;50.962;6.960;2022-12-05T05:19:39;2.10;99.90
35246;DHT22;21379;50.962;6.960;2022-12-05T05:22:06;2.10;99.90
35246;DHT22;21379;50.962;6.960;2022-12-05T05:24:33;2.10;99.90
35246;DHT22;21379;50.962;6.960;2022-12-05T05:27:00;2.10;99.90
35246;DHT22;21379;50.962;6.960;2022-12-05T05:29:26;2.00;99.90
35246;DHT22;21379;50.962;6.960;2022-12-05T05:31:53;2.00;99.90
35246;DHT22;21379;50.962;6.960;2022-12-05T05:34:20;2.00;99.90
35246;DHT22;21379;50.962;6.960;2022-12-05T05:36:51;2.00;99.90
35246;DHT22;21379;50.962;6.960;2022-12-05T05:39:18;2.00;99.90
35246;DHT22;21379;50.962;6.960;2022-12-05T05:41:45;2.00;99.90
35246;DHT22;21379;50.962;6.960;2022-12-05T05:44:12;2.00;99.90
35246;DHT22;21379;50.962;6.960;2022-12-05T05:46:38;2.00;99.90
35246;DHT22;21379;50.962;6.960;2022-12-05T05:49:05;2.00;99.90
35246;DHT22;21379;50.962;6.960;2022-12-05T05:51:32;1.90;99.90
35246;DHT22;21379;50.962;6.960;2022-12-05T05:54:00;1.90;99.90
35246;DHT22;21379;50.962;6.960;2022-12-05T05:56:27;1.90;99.90
35246;DHT22;21379;50.962;6.960;2022-12-05T05:58:56;1.90;99.90
35246;DHT22;21379;50.962;6.960;2022-12-05T06:01:23;1.90;99.90
35246;DHT22;21379;50.962;6.960;2022-12-05T06:03:50;1.90;99.90
35246;DHT22;21379;50.962;6.960;2022-12-05T06:06:18;1.90;99.90
35246;DHT22;21379;50.962;6.960;2022-12-05T06:08:45;2.00;99.90
35246;DHT22;21379;50.962;6.960;2022-12-05T06:11:15;2.00;99.90
35246;DHT22;21379;50.962;6.960;2022-12-05T06:13:42;2.00;99.90
35246;DHT22;21379;50.962;6.960;2022-12-05T06:16:12;2.00;99.90
35246;DHT22;21379;50.962;6.960;2022-12-05T06:18:39;2.00;99.90
35246;DHT22;21379;50.962;6.960;2022-12-05T06:21:07;2.00;99.90
35246;DHT22;21379;50.962;6.960;2022-12-05T06:23:34;1.90;99.90
35246;DHT22;21379;50.962;6.960;2022-12-05T06:26:03;1.90;99.90
35246;DHT22;21379;50.962;6.960;2022-12-05T06:28:31;1.90;99.90
35246;DHT22;21379;50.962;6.960;2022-12-05T06:30:58;2.00;99.90
35246;DHT22;21379;50.962;6.960;2022-12-05T06:33:27;2.00;99.90
35246;DHT22;21379;50.962;6.960;2022-12-05T06:36:02;1.90;99.90
35246;DHT22;21379;50.962;6.960;2022-12-05T06:38:29;2.00;99.90
35246;DHT22;21379;50.962;6.960;2022-12-05T06:40:56;2.00;99.90
35246;DHT22;21379;50.962;6.960;2022-12-05T06:43:22;2.00;99.90
35246;DHT22;21379;50.962;6.960;2022-12-05T06:45:51;1.90;99.90
35246;DHT22;21379;50.962;6.960;2022-12-05T06:48:17;1.90;99.90
35246;DHT22;21379;50.962;6.960;2022-12-05T06:50:49;1.90;99.90
35246;DHT22;21379;50.962;6.960;2022-12-05T06:53:16;1.90;99.90
35246;DHT22;21379;50.962;6.960;2022-12-05T06:55:43;1.90;99.90
35246;DHT22;21379;50.962;6.960;2022-12-05T06:58:10;1.90;99.90
35246;DHT22;21379;50.962;6.960;2022-12-05T07:00:36;1.90;99.90
35246;DHT22;21379;50.962;6.960;2022-12-05T07:03:22;1.90;99.90
35246;DHT22;21379;50.962;6.960;2022-12-05T07:05:49;2.00;99.90
35246;DHT22;21379;50.962;6.960;2022-12-05T07:08:16;1.90;99.90
35246;DHT22;21379;50.962;6.960;2022-12-05T07:10:49;2.00;99.90
35246;DHT22;21379;50.962;6.960;2022-12-05T07:13:16;2.00;99.90
35246;DHT22;21379;50.962;6.960;2022-12-05T07:15:45;2.00;99.90
35246;DHT22;21379;50.962;6.960;2022-12-05T07:18:12;2.00;99.90
35246;DHT22;21379;50.962;6.960;2022-12-05T07:20:41;2.00;99.90
35246;DHT22;21379;50.962;6.960;2022-12-05T07:23:08;2.00;99.90
35246;DHT22;21379;50.962;6.960;2022-12-05T07:25:38;2.00;99.90
35246;DHT22;21379;50.962;6.960;2022-12-05T07:28:05;2.10;99.90
35246;DHT22;21379;50.962;6.960;2022-12-05T07:30:32;2.10;99.90
35246;DHT22;21379;50.962;6.960;2022-12-05T07:32:59;2.00;99.90
35246;DHT22;21379;50.962;6.960;2022-12-05T07:35:26;2.10;99.90
35246;DHT22;21379;50.962;6.960;2022-12-05T07:37:54;2.00;99.90
35246;DHT22;21379;50.962;6.960;2022-12-05T07:40:21;2.00;99.90
35246;DHT22;21379;50.962;6.960;2022-12-05T07:42:48;2.00;99.90
35246;DHT22;21379;50.962;6.960;2022-12-05T07:45:15;2.00;99.90
35246;DHT22;21379;50.962;6.960;2022-12-05T07:47:41;2.00;99.90
35246;DHT22;21379;50.962;6.960;2022-12-05T07:50:09;2.00;99.90
35246;DHT22;21379;50.962;6.960;2022-12-05T07:52:36;2.10;99.90
35246;DHT22;21379;50.962;6.960;2022-12-05T07:55:05;2.10;99.90
35246;DHT22;21379;50.962;6.960;2022-12-05T07:57:32;2.10;99.90
35246;DHT22;21379;50.962;6.960;2022-12-05T07:59:59;2.10;99.90
35246;DHT22;21379;50.962;6.960;2022-12-05T08:02:26;2.10;99.90
35246;DHT22;21379;50.962;6.960;2022-12-05T08:04:53;2.00;99.90
35246;DHT22;21379;50.962;6.960;2022-12-05T08:07:20;2.00;99.90
35246;DHT22;21379;50.962;6.960;2022-12-05T08:09:46;2.00;99.90
35246;DHT22;21379;50.962;6.960;2022-12-05T08:12:15;2.00;99.90
35246;DHT22;21379;50.962;6.960;2022-12-05T08:14:41;2.10;99.90
35246;DHT22;21379;50.962;6.960;2022-12-05T08:17:08;2.10;99.90
35246;DHT22;21379;50.962;6.960;2022-12-05T08:19:37;2.10;99.90
35246;DHT22;21379;50.962;6.960;2022-12-05T08:22:04;2.10;99.90
35246;DHT22;21379;50.962;6.960;2022-12-05T08:24:31;2.10;99.90
35246;DHT22;21379;50.962;6.960;2022-12-05T08:26:57;2.10;99.90
35246;DHT22;21379;50.962;6.960;2022-12-05T08:29:25;2.10;99.90
35246;DHT22;21379;50.962;6.960;2022-12-05T08:31:52;2.10;99.90
35246;DHT22;21379;50.962;6.960;2022-12-05T08:34:19;2.10;99.90
35246;DHT22;21379;50.962;6.960;2022-12-05T08:36:46;2.20;99.90
35246;DHT22;21379;50.962;6.960;2022-12-05T08:39:15;2.30;99.90
35246;DHT22;21379;50.962;6.960;2022-12-05T08:41:42;2.30;99.90
35246;DHT22;21379;50.962;6.960;2022-12-05T08:44:10;2.30;99.90
35246;DHT22;21379;50.962;6.960;2022-12-05T08:46:43;2.40;99.90
35246;DHT22;21379;50.962;6.960;2022-12-05T08:49:10;2.40;99.90
35246;DHT22;21379;50.962;6.960;2022-12-05T08:51:38;2.40;99.90
35246;DHT22;21379;50.962;6.960;2022-12-05T08:54:05;2.40;99.90
35246;DHT22;21379;50.962;6.960;2022-12-05T08:56:32;2.40;99.90
35246;DHT22;21379;50.962;6.960;2022-12-05T08:58:59;2.50;99.90
35246;DHT22;21379;50.962;6.960;2022-12-05T09:01:27;2.50;99.90
35246;DHT22;21379;50.962;6.960;2022-12-05T09:03:58;2.40;99.90
35246;DHT22;21379;50.962;6.960;2022-12-05T09:06:27;2.40;99.90
35246;DHT22;21379;50.962;6.960;2022-12-05T09:08:55;2.30;99.90
35246;DHT22;21379;50.962;6.960;2022-12-05T09:11:23;2.30;99.90
35246;DHT22;21379;50.962;6.960;2022-12-05T09:13:52;2.30;99.90
35246;DHT22;21379;50.962;6.960;2022-12-05T09:16:21;2.30;99.90
35246;DHT22;21379;50.962;6.960;2022-12-05T09:18:48;2.40;99.90
35246;DHT22;21379;50.962;6.960;2022-12-05T09:21:19;2.40;99.90
35246;DHT22;21379;50.962;6.960;2022-12-05T09:23:47;2.40;99.90
35246;DHT22;21379;50.962;6.960;2022-12-05T09:26:15;2.30;99.90
35246;DHT22;21379;50.962;6.960;2022-12-05T09:28:43;2.40;99.90
35246;DHT22;21379;50.962;6.960;2022-12-05T09:31:12;2.40;99.90
35246;DHT22;21379;50.962;6.960;2022-12-05T09:33:40;2.50;99.90
35246;DHT22;21379;50.962;6.960;2022-12-05T09:36:08;2.50;99.90
35246;DHT22;21379;50.962;6.960;2022-12-05T09:38:38;2.50;99.90
35246;DHT22;21379;50.962;6.960;2022-12-05T09:41:13;2.50;99.90
35246;DHT22;21379;50.962;6.960;2022-12-05T09:43:50;2.50;99.90
35246;DHT22;21379;50.962;6.960;2022-12-05T09:46:27;2.40;99.90
35246;DHT22;21379;50.962;6.960;2022-12-05T09:48:56;2.50;99.90
35246;DHT22;21379;50.962;6.960;2022-12-05T09:51:24;2.50;99.90
35246;DHT22;21379;50.962;6.960;2022-12-05T09:53:53;2.60;99.90
35246;DHT22;21379;50.962;6.960;2022-12-05T09:56:24;2.70;99.90
35246;DHT22;21379;50.962;6.960;2022-12-05T09:58:53;2.70;99.90
35246;DHT22;21379;50.962;6.960;2022-12-05T10:01:26;2.70;99.90
35246;DHT22;21379;50.962;6.960;2022-12-05T10:04:26;2.80;99.90
35246;DHT22;21379;50.962;6.960;2022-12-05T10:06:58;2.90;99.90
35246;DHT22;21379;50.962;6.960;2022-12-05T10:09:43;3.00;99.90
35246;DHT22;21379;50.962;6.960;2022-12-05T10:12:19;3.00;99.90
35246;DHT22;21379;50.962;6.960;2022-12-05T10:14:58;3.00;99.90
35246;DHT22;21379;50.962;6.960;2022-12-05T10:17:30;3.10;99.90
35246;DHT22;21379;50.962;6.960;2022-12-05T10:20:00;3.00;99.90
35246;DHT22;21379;50.962;6.960;2022-12-05T10:22:35;3.00;99.90
35246;DHT22;21379;50.962;6.960;2022-12-05T10:25:05;3.00;99.90
35246;DHT22;21379;50.962;6.960;2022-12-05T10:27:36;3.10;99.90
35246;DHT22;21379;50.962;6.960;2022-12-05T10:30:05;3.10;99.90
35246;DHT22;21379;50.962;6.960;2022-12-05T10:32:36;3.20;99.90
35246;DHT22;21379;50.962;6.960;2022-12-05T10:35:16;3.20;99.90
35246;DHT22;21379;50.962;6.960;2022-12-05T10:37:47;3.10;99.90
35246;DHT22;21379;50.962;6.960;2022-12-05T10:40:16;3.10;99.90
35246;DHT22;21379;50.962;6.960;2022-12-05T10:42:44;3.10;99.90
35246;DHT22;21379;50.962;6.960;2022-12-05T10:45:17;3.10;99.90
35246;DHT22;21379;50.962;6.960;2022-12-05T10:47:45;3.20;99.90
35246;DHT22;21379;50.962;6.960;2022-12-05T10:50:24;3.20;99.90
35246;DHT22;21379;50.962;6.960;2022-12-05T10:52:52;3.20;99.90
35246;DHT22;21379;50.962;6.960;2022-12-05T10:55:21;3.30;99.90
35246;DHT22;21379;50.962;6.960;2022-12-05T10:57:50;3.30;99.90
35246;DHT22;21379;50.962;6.960;2022-12-05T11:00:21;3.40;99.90
35246;DHT22;21379;50.962;6.960;2022-12-05T11:02:49;3.40;99.90
35246;DHT22;21379;50.962;6.960;2022-12-05T11:05:26;3.40;99.90
35246;DHT22;21379;50.962;6.960;2022-12-05T11:07:54;3.40;99.90
35246;DHT22;21379;50.962;6.960;2022-12-05T11:10:26;3.40;99.90
35246;DHT22;21379;50.962;6.960;2022-12-05T11:12:57;3.40;99.90
35246;DHT22;21379;50.962;6.960;2022-12-05T11:15:26;3.40;99.90
35246;DHT22;21379;50.962;6.960;2022-12-05T11:17:54;3.50;99.90
35246;DHT22;21379;50.962;6.960;2022-12-05T11:20:38;3.40;99.90
35246;DHT22;21379;50.962;6.960;2022-12-05T11:23:20;3.40;99.90
35246;DHT22;21379;50.962;6.960;2022-12-05T11:25:49;3.50;99.90
35246;DHT22;21379;50.962;6.960;2022-12-05T11:28:34;3.40;99.90
35246;DHT22;21379;50.962;6.960;2022-12-05T11:31:04;3.30;99.90
35246;DHT22;21379;50.962;6.960;2022-12-05T11:33:33;3.40;99.90
35246;DHT22;21379;50.962;6.960;2022-12-05T11:36:08;3.30;99.90
35246;DHT22;21379;50.962;6.960;2022-12-05T11:38:38;3.40;99.90
35246;DHT22;21379;50.962;6.960;2022-12-05T11:41:37;3.40;99.90
35246;DHT22;21379;50.962;6.960;2022-12-05T11:44:18;3.30;99.90
35246;DHT22;21379;50.962;6.960;2022-12-05T11:46:54;3.30;99.90
35246;DHT22;21379;50.962;6.960;2022-12-05T11:49:35;3.30;99.90
35246;DHT22;21379;50.962;6.960;2022-12-05T11:52:12;3.20;99.90
35246;DHT22;21379;50.962;6.960;2022-12-05T11:54:55;3.20;99.90
35246;DHT22;21379;50.962;6.960;2022-12-05T11:57:39;3.20;99.90
35246;DHT22;21379;50.962;6.960;2022-12-05T12:00:18;3.20;99.90
35246;DHT22;21379;50.962;6.960;2022-12-05T12:06:09;3.30;99.90
35246;DHT22;21379;50.962;6.960;2022-12-05T12:08:46;3.30;99.90
35246;DHT22;21379;50.962;6.960;2022-12-05T12:11:24;3.30;99.90
35246;DHT22;21379;50.962;6.960;2022-12-05T12:14:00;3.20;99.90
35246;DHT22;21379;50.962;6.960;2022-12-05T12:16:34;3.30;99.90
35246;DHT22;21379;50.962;6.960;2022-12-05T12:19:18;3.20;99.90
35246;DHT22;21379;50.962;6.960;2022-12-05T12:22:01;3.00;99.90
35246;DHT22;21379;50.962;6.960;2022-12-05T12:24:37;3.10;99.90
35246;DHT22;21379;50.962;6.960;2022-12-05T12:27:14;3.20;99.90
35246;DHT22;21379;50.962;6.960;2022-12-05T12:29:58;3.30;99.90
35246;DHT22;21379;50.962;6.960;2022-12-05T12:32:37;3.20;99.90
35246;DHT22;21379;50.962;6.960;2022-12-05T12:35:30;3.30;99.90
35246;DHT22;21379;50.962;6.960;2022-12-05T12:38:27;3.40;99.90
35246;DHT22;21379;50.962;6.960;2022-12-05T12:40:57;3.30;99.90
35246;DHT22;21379;50.962;6.960;2022-12-05T12:43:38;3.40;99.90
35246;DHT22;21379;50.962;6.960;2022-12-05T12:46:15;3.50;99.90
35246;DHT22;21379;50.962;6.960;2022-12-05T12:49:14;3.50;99.90
35246;DHT22;21379;50.962;6.960;2022-12-05T12:51:51;3.50;99.90
35246;DHT22;21379;50.962;6.960;2022-12-05T12:54:31;3.40;99.90
35246;DHT22;21379;50.962;6.960;2022-12-05T12:57:11;3.20;99.90
35246;DHT22;21379;50.962;6.960;2022-12-05T12:59:51;3.00;99.90
35246;DHT22;21379;50.962;6.960;2022-12-05T13:02:26;3.10;99.90
35246;DHT22;21379;50.962;6.960;2022-12-05T13:04:58;3.10;99.90
35246;DHT22;21379;50.962;6.960;2022-12-05T13:07:30;3.10;99.90
35246;DHT22;21379;50.962;6.960;2022-12-05T13:10:02;3.20;99.90
35246;DHT22;21379;50.962;6.960;2022-12-05T13:12:34;3.10;99.90
35246;DHT22;21379;50.962;6.960;2022-12-05T13:15:06;3.20;99.90
35246;DHT22;21379;50.962;6.960;2022-12-05T13:17:41;3.20;99.90
35246;DHT22;21379;50.962;6.960;2022-12-05T13:20:13;3.20;99.90
35246;DHT22;21379;50.962;6.960;2022-12-05T13:22:42;3.20;99.90
35246;DHT22;21379;50.962;6.960;2022-12-05T13:25:13;3.20;99.90
35246;DHT22;21379;50.962;6.960;2022-12-05T13:27:52;3.10;99.90
35246;DHT22;21379;50.962;6.960;2022-12-05T13:30:19;3.10;99.90
35246;DHT22;21379;50.962;6.960;2022-12-05T13:32:54;3.10;99.90
35246;DHT22;21379;50.962;6.960;2022-12-05T13:35:29;3.10;99.90
35246;DHT22;21379;50.962;6.960;2022-12-05T13:38:22;3.00;99.90
35246;DHT22;21379;50.962;6.960;2022-12-05T13:41:10;3.10;99.90
35246;DHT22;21379;50.962;6.960;2022-12-05T13:43:55;3.10;99.90
35246;DHT22;21379;50.962;6.960;2022-12-05T13:46:26;3.10;99.90
35246;DHT22;21379;50.962;6.960;2022-12-05T13:49:01;3.10;99.90
35246;DHT22;21379;50.962;6.960;2022-12-05T13:51:30;3.00;99.90
35246;DHT22;21379;50.962;6.960;2022-12-05T13:54:02;3.00;99.90
35246;DHT22;21379;50.962;6.960;2022-12-05T13:56:46;3.00;99.90
35246;DHT22;21379;50.962;6.960;2022-12-05T14:05:51;2.90;99.90
35246;DHT22;21379;50.962;6.960;2022-12-05T14:11:21;3.00;99.90
35246;DHT22;21379;50.962;6.960;2022-12-05T14:13:49;2.90;99.90
35246;DHT22;21379;50.962;6.960;2022-12-05T14:16:47;2.90;99.90
35246;DHT22;21379;50.962;6.960;2022-12-05T14:19:46;2.80;99.90
35246;DHT22;21379;50.962;6.960;2022-12-05T14:25:25;2.80;99.90
35246;DHT22;21379;50.962;6.960;2022-12-05T14:27:59;2.80;99.90
35246;DHT22;21379;50.962;6.960;2022-12-05T14:30:31;2.70;99.90
35246;DHT22;21379;50.962;6.960;2022-12-05T14:33:01;2.70;99.90
35246;DHT22;21379;50.962;6.960;2022-12-05T14:35:29;2.70;99.90
35246;DHT22;21379;50.962;6.960;2022-12-05T14:38:02;2.70;99.90
35246;DHT22;21379;50.962;6.960;2022-12-05T14:40:32;2.70;99.90
35246;DHT22;21379;50.962;6.960;2022-12-05T14:43:01;2.70;99.90
35246;DHT22;21379;50.962;6.960;2022-12-05T14:45:32;2.70;99.90
35246;DHT22;21379;50.962;6.960;2022-12-05T14:48:01;2.70;99.90
35246;DHT22;21379;50.962;6.960;2022-12-05T14:50:39;2.70;99.90
35246;DHT22;21379;50.962;6.960;2022-12-05T14:53:20;2.80;99.90
35246;DHT22;21379;50.962;6.960;2022-12-05T14:55:51;2.80;99.90
35246;DHT22;21379;50.962;6.960;2022-12-05T14:58:22;2.70;99.90
35246;DHT22;21379;50.962;6.960;2022-12-05T15:00:54;2.70;99.90
35246;DHT22;21379;50.962;6.960;2022-12-05T15:03:24;2.70;99.90
35246;DHT22;21379;50.962;6.960;2022-12-05T15:05:54;2.70;99.90
35246;DHT22;21379;50.962;6.960;2022-12-05T15:08:23;2.70;99.90
35246;DHT22;21379;50.962;6.960;2022-12-05T15:10:50;2.70;99.90
35246;DHT22;21379;50.962;6.960;2022-12-05T15:13:20;2.70;99.90
35246;DHT22;21379;50.962;6.960;2022-12-05T15:15:55;2.60;99.90
35246;DHT22;21379;50.962;6.960;2022-12-05T15:18:26;2.60;99.90
35246;DHT22;21379;50.962;6.960;2022-12-05T15:20:56;2.60;99.90
35246;DHT22;21379;50.962;6.960;2022-12-05T15:23:43;2.60;99.90
35246;DHT22;21379;50.962;6.960;2022-12-05T15:26:20;2.50;99.90
35246;DHT22;21379;50.962;6.960;2022-12-05T15:28:59;2.50;99.90
35246;DHT22;21379;50.962;6.960;2022-12-05T15:31:28;2.50;99.90
35246;DHT22;21379;50.962;6.960;2022-12-05T15:34:00;2.60;99.90
35246;DHT22;21379;50.962;6.960;2022-12-05T15:36:32;2.50;99.90
35246;DHT22;21379;50.962;6.960;2022-12-05T15:39:04;2.60;99.90
35246;DHT22;21379;50.962;6.960;2022-12-05T15:41:31;2.60;99.90
35246;DHT22;21379;50.962;6.960;2022-12-05T15:43:58;2.70;99.90
35246;DHT22;21379;50.962;6.960;2022-12-05T15:46:25;2.60;99.90
35246;DHT22;21379;50.962;6.960;2022-12-05T15:48:55;2.60;99.90
35246;DHT22;21379;50.962;6.960;2022-12-05T15:51:29;2.60;99.90
35246;DHT22;21379;50.962;6.960;2022-12-05T15:53:59;2.60;99.90
35246;DHT22;21379;50.962;6.960;2022-12-05T15:56:33;2.50;99.90
35246;DHT22;21379;50.962;6.960;2022-12-05T15:59:03;2.50;99.90
35246;DHT22;21379;50.962;6.960;2022-12-05T16:01:37;2.40;99.90
35246;DHT22;21379;50.962;6.960;2022-12-05T16:04:12;2.50;99.90
35246;DHT22;21379;50.962;6.960;2022-12-05T16:06:43;2.50;99.90
35246;DHT22;21379;50.962;6.960;2022-12-05T16:09:14;2.60;99.90
35246;DHT22;21379;50.962;6.960;2022-12-05T16:11:51;2.50;99.90
35246;DHT22;21379;50.962;6.960;2022-12-05T16:14:19;2.40;99.90
35246;DHT22;21379;50.962;6.960;2022-12-05T16:16:46;2.50;99.90
35246;DHT22;21379;50.962;6.960;2022-12-05T16:19:15;2.40;99.90
35246;DHT22;21379;50.962;6.960;2022-12-05T16:21:44;2.40;99.90
35246;DHT22;21379;50.962;6.960;2022-12-05T16:24:16;2.40;99.90
35246;DHT22;21379;50.962;6.960;2022-12-05T16:26:53;2.30;99.90
35246;DHT22;21379;50.962;6.960;2022-12-05T16:29:26;2.30;99.90